PWSweather.com
Personal Weather Stations
Station Observations
PWSLORIS
The Farm At Fox Bay, Loris, SC 29569

The Farm At Fox BayLoris, SC 29569

Lat: 34.067097, Lon: -78.86907

Elevation: 108

Station Type: Davis Vantage Pro2 with 24 hr. FARS and solar

http://www.lorisweather.com

High Low Average
Temperature 88.2°F31.2°F 71.9°F22.2°F 79.6°F26.4°F
Dew Point 78.9°F26.1°F 71.0°F21.7°F 75.3°F24.1°F
Winds 8.1 mph E13.0 mph E Calm Calm 1.7 mph 2.7 mph
Wind Gusts 11.5 mph18.5 mph -- 3.6 mph5.8 mph
Humidity 97% 72% 87%
Pressure 30.13 in1020.30 in 30.04 in1017.30 in -
Precipitation 0.00 in0.00 in - -
Hour Temp Dew Point Humidity Winds Wind Gusts Pressure Precip Precip Rate Daily Precip Total
12:00 AM 78.2°F25.7°C 77.3°F25.2°C 97% Calm Calm -- 30.07 in1018.3 mb - 0.00 in0.0 mm 0.00 in0.0 mm
12:15 AM 78.5°F25.8°C 77.6°F25.3°C 97% Calm Calm -- 30.07 in1018.3 mb - 0.00 in0.0 mm 0.00 in0.0 mm
12:30 AM 78.4°F25.8°C 77.4°F25.2°C 97% Calm Calm -- 30.07 in1018.3 mb - 0.00 in0.0 mm 0.00 in0.0 mm
12:45 AM 78.2°F25.7°C 77.3°F25.2°C 97% Calm Calm -- 30.06 in1017.9 mb - 0.00 in0.0 mm 0.00 in0.0 mm
01:00 AM 77.3°F25.2°C 76.4°F24.7°C 97% Calm Calm -- 30.07 in1018.3 mb - 0.00 in0.0 mm 0.00 in0.0 mm
01:15 AM 76.4°F24.7°C 75.5°F24.2°C 97% Calm Calm -- 30.07 in1018.3 mb - 0.00 in0.0 mm 0.00 in0.0 mm
01:30 AM 76.0°F24.4°C 75.1°F23.9°C 97% Calm Calm -- 30.06 in1017.9 mb - 0.00 in0.0 mm 0.00 in0.0 mm
01:45 AM 75.9°F24.4°C 75.0°F23.9°C 97% Calm Calm -- 30.06 in1017.9 mb - 0.00 in0.0 mm 0.00 in0.0 mm
02:00 AM 75.6°F24.2°C 74.7°F23.7°C 97% Calm Calm -- 30.05 in1017.6 mb - 0.00 in0.0 mm 0.00 in0.0 mm
02:15 AM 75.5°F24.2°C 74.6°F23.7°C 97% Calm Calm -- 30.05 in1017.6 mb - 0.00 in0.0 mm 0.00 in0.0 mm
02:30 AM 75.5°F24.2°C 74.6°F23.7°C 97% Calm Calm -- 30.05 in1017.6 mb - 0.00 in0.0 mm 0.00 in0.0 mm
02:45 AM 75.7°F24.3°C 74.8°F23.8°C 97% Calm Calm -- 30.05 in1017.6 mb - 0.00 in0.0 mm 0.00 in0.0 mm
03:00 AM 76.2°F24.6°C 75.3°F24.1°C 97% Calm Calm -- 30.05 in1017.6 mb - 0.00 in0.0 mm 0.00 in0.0 mm
03:15 AM 76.4°F24.7°C 75.5°F24.2°C 97% Calm Calm -- 30.05 in1017.6 mb - 0.00 in0.0 mm 0.00 in0.0 mm
03:30 AM 76.4°F24.7°C 75.5°F24.2°C 97% Calm Calm -- 30.04 in1017.3 mb - 0.00 in0.0 mm 0.00 in0.0 mm
03:45 AM 76.3°F24.6°C 75.4°F24.1°C 97% Calm Calm -- 30.05 in1017.6 mb - 0.00 in0.0 mm 0.00 in0.0 mm
04:00 AM 76.2°F24.6°C 75.3°F24.1°C 97% Calm Calm -- 30.05 in1017.6 mb - 0.00 in0.0 mm 0.00 in0.0 mm
04:15 AM 76.1°F24.5°C 75.2°F24.0°C 97% Calm Calm -- 30.05 in1017.6 mb - 0.00 in0.0 mm 0.00 in0.0 mm
04:30 AM 76.0°F24.4°C 75.1°F23.9°C 97% Calm Calm 2.3 mph3.7 kmh 30.06 in1017.9 mb - 0.00 in0.0 mm 0.00 in0.0 mm
04:45 AM 76.2°F24.6°C 75.3°F24.1°C 97% 2.3 mph E3.7 kmh E 5.8 mph9.3 kmh 30.06 in1017.9 mb - 0.00 in0.0 mm 0.00 in0.0 mm
05:00 AM 76.4°F24.7°C 75.5°F24.2°C 97% 3.5 mph ENE5.6 kmh ENE 8.1 mph13.0 kmh 30.06 in1017.9 mb - 0.00 in0.0 mm 0.00 in0.0 mm
05:15 AM 76.6°F24.8°C 75.7°F24.3°C 97% Calm Calm 3.5 mph5.6 kmh 30.06 in1017.9 mb - 0.00 in0.0 mm 0.00 in0.0 mm
05:30 AM 76.7°F24.8°C 75.8°F24.3°C 97% Calm Calm 2.3 mph3.7 kmh 30.06 in1017.9 mb - 0.00 in0.0 mm 0.00 in0.0 mm
05:45 AM 76.7°F24.8°C 75.8°F24.3°C 97% 2.3 mph ENE3.7 kmh ENE 8.1 mph13.0 kmh 30.07 in1018.3 mb - 0.00 in0.0 mm 0.00 in0.0 mm
06:00 AM 76.7°F24.8°C 75.8°F24.3°C 97% 1.2 mph NE1.9 kmh NE 4.6 mph7.4 kmh 30.08 in1018.6 mb - 0.00 in0.0 mm 0.00 in0.0 mm
06:15 AM 76.6°F24.8°C 75.7°F24.3°C 97% Calm Calm 6.9 mph11.1 kmh 30.08 in1018.6 mb - 0.00 in0.0 mm 0.00 in0.0 mm
06:30 AM 76.5°F24.7°C 75.3°F24.1°C 96% Calm Calm 6.9 mph11.1 kmh 30.09 in1019.0 mb - 0.00 in0.0 mm 0.00 in0.0 mm
06:45 AM 76.4°F24.7°C 75.2°F24.0°C 96% 2.3 mph NE3.7 kmh NE 4.6 mph7.4 kmh 30.10 in1019.3 mb - 0.00 in0.0 mm 0.00 in0.0 mm
07:00 AM 76.4°F24.7°C 74.9°F23.8°C 95% Calm Calm 3.5 mph5.6 kmh 30.10 in1019.3 mb - 0.00 in0.0 mm 0.00 in0.0 mm
07:15 AM 76.6°F24.8°C 74.4°F23.6°C 93% 1.2 mph E1.9 kmh E 3.5 mph5.6 kmh 30.10 in1019.3 mb - 0.00 in0.0 mm 0.00 in0.0 mm
07:30 AM 76.9°F24.9°C 74.4°F23.6°C 92% 1.2 mph E1.9 kmh E 6.9 mph11.1 kmh 30.10 in1019.3 mb - 0.00 in0.0 mm 0.00 in0.0 mm
07:45 AM 77.5°F25.3°C 74.7°F23.7°C 91% 1.2 mph ENE1.9 kmh ENE 2.3 mph3.7 kmh 30.10 in1019.3 mb - 0.00 in0.0 mm 0.00 in0.0 mm
08:00 AM 78.2°F25.7°C 74.7°F23.7°C 89% 2.3 mph ENE3.7 kmh ENE 3.5 mph5.6 kmh 30.11 in1019.6 mb - 0.00 in0.0 mm 0.00 in0.0 mm
08:15 AM 78.2°F25.7°C 74.7°F23.7°C 89% 1.2 mph ENE1.9 kmh ENE 5.8 mph9.3 kmh 30.11 in1019.6 mb - 0.00 in0.0 mm 0.00 in0.0 mm
08:30 AM 78.3°F25.7°C 74.8°F23.8°C 89% 3.5 mph NE5.6 kmh NE 8.1 mph13.0 kmh 30.11 in1019.6 mb - 0.00 in0.0 mm 0.00 in0.0 mm
08:45 AM 79.0°F26.1°C 74.8°F23.8°C 87% 4.6 mph E7.4 kmh E 6.9 mph11.1 kmh 30.11 in1019.6 mb - 0.00 in0.0 mm 0.00 in0.0 mm
09:00 AM 80.0°F26.7°C 75.4°F24.1°C 86% 3.5 mph NE5.6 kmh NE 6.9 mph11.1 kmh 30.12 in1020.0 mb - 0.00 in0.0 mm 0.00 in0.0 mm
09:15 AM 80.2°F26.8°C 75.3°F24.1°C 85% 4.6 mph ENE7.4 kmh ENE 6.9 mph11.1 kmh 30.12 in1020.0 mb - 0.00 in0.0 mm 0.00 in0.0 mm
09:30 AM 80.7°F27.1°C 75.7°F24.3°C 85% 4.6 mph ENE7.4 kmh ENE 5.8 mph9.3 kmh 30.12 in1020.0 mb - 0.00 in0.0 mm 0.00 in0.0 mm
09:45 AM 81.9°F27.7°C 76.2°F24.6°C 83% 1.2 mph E1.9 kmh E -- 30.11 in1019.6 mb - 0.00 in0.0 mm 0.00 in0.0 mm
10:00 AM 81.6°F27.6°C 76.3°F24.6°C 84% 2.3 mph E3.7 kmh E 8.1 mph13.0 kmh 30.11 in1019.6 mb - 0.00 in0.0 mm 0.00 in0.0 mm
10:15 AM 83.1°F28.4°C 77.4°F25.2°C 83% 1.2 mph E1.9 kmh E 5.8 mph9.3 kmh 30.11 in1019.6 mb - 0.00 in0.0 mm 0.00 in0.0 mm
10:30 AM 83.0°F28.3°C 76.9°F24.9°C 82% 3.5 mph E5.6 kmh E 8.1 mph13.0 kmh 30.11 in1019.6 mb - 0.00 in0.0 mm 0.00 in0.0 mm
10:45 AM 84.1°F28.9°C 77.6°F25.3°C 81% 2.3 mph ENE3.7 kmh ENE 3.5 mph5.6 kmh 30.10 in1019.3 mb - 0.00 in0.0 mm 0.00 in0.0 mm
11:00 AM 83.7°F28.7°C 77.2°F25.1°C 81% 2.3 mph NE3.7 kmh NE 6.9 mph11.1 kmh 30.10 in1019.3 mb - 0.00 in0.0 mm 0.00 in0.0 mm
11:15 AM 83.2°F28.4°C 77.1°F25.1°C 82% 1.2 mph NE1.9 kmh NE -- 30.11 in1019.6 mb - 0.00 in0.0 mm 0.00 in0.0 mm
11:30 AM 84.6°F29.2°C 78.1°F25.6°C 81% 2.3 mph E3.7 kmh E 9.2 mph14.8 kmh 30.11 in1019.6 mb - 0.00 in0.0 mm 0.00 in0.0 mm
11:45 AM 84.2°F29.0°C 77.8°F25.4°C 81% 4.6 mph NNE7.4 kmh NNE 6.9 mph11.1 kmh 30.11 in1019.6 mb - 0.00 in0.0 mm 0.00 in0.0 mm
12:00 PM 83.4°F28.6°C 77.3°F25.2°C 82% 1.2 mph NE1.9 kmh NE -- 30.11 in1019.6 mb - 0.00 in0.0 mm 0.00 in0.0 mm
12:15 PM 86.0°F30.0°C 78.3°F25.7°C 78% 5.8 mph E9.3 kmh E 8.1 mph13.0 kmh 30.12 in1020.0 mb - 0.00 in0.0 mm 0.00 in0.0 mm
12:30 PM 86.5°F30.3°C 78.0°F25.6°C 76% 4.6 mph E7.4 kmh E 8.1 mph13.0 kmh 30.12 in1020.0 mb - 0.00 in0.0 mm 0.00 in0.0 mm
12:45 PM 85.5°F29.7°C 78.2°F25.7°C 79% 4.6 mph E7.4 kmh E 9.2 mph14.8 kmh 30.13 in1020.3 mb - 0.00 in0.0 mm 0.00 in0.0 mm
01:00 PM 86.2°F30.1°C 78.9°F26.1°C 79% 2.3 mph E3.7 kmh E 5.8 mph9.3 kmh 30.12 in1020.0 mb - 0.00 in0.0 mm 0.00 in0.0 mm
01:15 PM 86.9°F30.5°C 78.4°F25.8°C 76% 2.3 mph ENE3.7 kmh ENE 8.1 mph13.0 kmh 30.11 in1019.6 mb - 0.00 in0.0 mm 0.00 in0.0 mm
01:30 PM 87.2°F30.7°C 78.3°F25.7°C 75% 6.9 mph ENE11.1 kmh ENE 9.2 mph14.8 kmh 30.10 in1019.3 mb - 0.00 in0.0 mm 0.00 in0.0 mm
01:45 PM 88.2°F31.2°C 78.0°F25.6°C 72% 4.6 mph NE7.4 kmh NE 6.9 mph11.1 kmh 30.10 in1019.3 mb - 0.00 in0.0 mm 0.00 in0.0 mm
02:00 PM 85.6°F29.8°C 77.2°F25.1°C 76% 3.5 mph ENE5.6 kmh ENE 8.1 mph13.0 kmh 30.09 in1019.0 mb - 0.00 in0.0 mm 0.00 in0.0 mm
02:15 PM 85.3°F29.6°C 77.2°F25.1°C 77% 6.9 mph NE11.1 kmh NE 6.9 mph11.1 kmh 30.10 in1019.3 mb - 0.00 in0.0 mm 0.00 in0.0 mm
02:30 PM 84.8°F29.3°C 77.2°F25.1°C 78% 2.3 mph NE3.7 kmh NE 5.8 mph9.3 kmh 30.11 in1019.6 mb - 0.00 in0.0 mm 0.00 in0.0 mm
02:45 PM 84.6°F29.2°C 77.0°F25.0°C 78% 3.5 mph E5.6 kmh E 4.6 mph7.4 kmh 30.11 in1019.6 mb - 0.00 in0.0 mm 0.00 in0.0 mm
03:00 PM 84.0°F28.9°C 76.0°F24.4°C 77% 8.1 mph E13.0 kmh E 11.5 mph18.5 kmh 30.11 in1019.6 mb - 0.00 in0.0 mm 0.00 in0.0 mm
03:15 PM 83.9°F28.8°C 75.9°F24.4°C 77% 3.5 mph E5.6 kmh E 5.8 mph9.3 kmh 30.10 in1019.3 mb - 0.00 in0.0 mm 0.00 in0.0 mm
03:30 PM 83.6°F28.7°C 75.6°F24.2°C 77% 3.5 mph E5.6 kmh E 6.9 mph11.1 kmh 30.10 in1019.3 mb - 0.00 in0.0 mm 0.00 in0.0 mm
03:45 PM 83.2°F28.4°C 75.6°F24.2°C 78% 2.3 mph ENE3.7 kmh ENE 6.9 mph11.1 kmh 30.09 in1019.0 mb - 0.00 in0.0 mm 0.00 in0.0 mm
04:00 PM 82.9°F28.3°C 74.6°F23.7°C 76% 8.1 mph E13.0 kmh E 11.5 mph18.5 kmh 30.09 in1019.0 mb - 0.00 in0.0 mm 0.00 in0.0 mm
04:15 PM 82.5°F28.1°C 74.2°F23.4°C 76% 4.6 mph ESE7.4 kmh ESE 6.9 mph11.1 kmh 30.09 in1019.0 mb - 0.00 in0.0 mm 0.00 in0.0 mm
04:30 PM 82.6°F28.1°C 74.7°F23.7°C 77% 2.3 mph SE3.7 kmh SE 4.6 mph7.4 kmh 30.08 in1018.6 mb - 0.00 in0.0 mm 0.00 in0.0 mm
04:45 PM 82.8°F28.2°C 74.8°F23.8°C 77% 6.9 mph E11.1 kmh E 9.2 mph14.8 kmh 30.07 in1018.3 mb - 0.00 in0.0 mm 0.00 in0.0 mm
05:00 PM 82.9°F28.3°C 75.0°F23.9°C 77% 3.5 mph ESE5.6 kmh ESE 5.8 mph9.3 kmh 30.07 in1018.3 mb - 0.00 in0.0 mm 0.00 in0.0 mm
05:15 PM 83.1°F28.4°C 74.4°F23.6°C 75% 4.6 mph ESE7.4 kmh ESE 9.2 mph14.8 kmh 30.07 in1018.3 mb - 0.00 in0.0 mm 0.00 in0.0 mm
05:30 PM 83.2°F28.4°C 74.8°F23.8°C 76% 3.5 mph SE5.6 kmh SE 8.1 mph13.0 kmh 30.06 in1017.9 mb - 0.00 in0.0 mm 0.00 in0.0 mm
05:45 PM 83.3°F28.5°C 74.9°F23.8°C 76% Calm Calm 3.5 mph5.6 kmh 30.06 in1017.9 mb - 0.00 in0.0 mm 0.00 in0.0 mm
06:00 PM 82.9°F28.3°C 74.6°F23.7°C 76% Calm Calm 3.5 mph5.6 kmh 30.06 in1017.9 mb - 0.00 in0.0 mm 0.00 in0.0 mm
06:15 PM 82.8°F28.2°C 74.8°F23.8°C 77% Calm Calm 3.5 mph5.6 kmh 30.06 in1017.9 mb - 0.00 in0.0 mm 0.00 in0.0 mm
06:30 PM 82.7°F28.2°C 75.1°F23.9°C 78% Calm Calm 3.5 mph5.6 kmh 30.06 in1017.9 mb - 0.00 in0.0 mm 0.00 in0.0 mm
06:45 PM 82.5°F28.1°C 74.9°F23.8°C 78% Calm Calm -- 30.06 in1017.9 mb - 0.00 in0.0 mm 0.00 in0.0 mm
07:00 PM 82.5°F28.1°C 75.4°F24.1°C 79% Calm Calm -- 30.06 in1017.9 mb - 0.00 in0.0 mm 0.00 in0.0 mm
07:15 PM 82.5°F28.1°C 74.9°F23.8°C 78% Calm Calm -- 30.06 in1017.9 mb - 0.00 in0.0 mm 0.00 in0.0 mm
07:30 PM 82.2°F27.9°C 74.7°F23.7°C 78% 1.2 mph SE1.9 kmh SE 3.5 mph5.6 kmh 30.06 in1017.9 mb - 0.00 in0.0 mm 0.00 in0.0 mm
07:45 PM 81.9°F27.7°C 74.7°F23.7°C 79% Calm Calm -- 30.07 in1018.3 mb - 0.00 in0.0 mm 0.00 in0.0 mm
08:00 PM 81.3°F27.4°C 74.2°F23.4°C 79% Calm Calm -- 30.07 in1018.3 mb - 0.00 in0.0 mm 0.00 in0.0 mm
08:15 PM 80.5°F26.9°C 74.5°F23.6°C 82% Calm Calm -- 30.07 in1018.3 mb - 0.00 in0.0 mm 0.00 in0.0 mm
08:30 PM 78.5°F25.8°C 74.0°F23.3°C 86% Calm Calm -- 30.07 in1018.3 mb - 0.00 in0.0 mm 0.00 in0.0 mm
08:45 PM 77.5°F25.3°C 74.0°F23.3°C 89% Calm Calm -- 30.07 in1018.3 mb - 0.00 in0.0 mm 0.00 in0.0 mm
09:00 PM 76.3°F24.6°C 73.1°F22.8°C 90% Calm Calm -- 30.08 in1018.6 mb - 0.00 in0.0 mm 0.00 in0.0 mm
09:15 PM 75.5°F24.2°C 73.0°F22.8°C 92% Calm Calm -- 30.08 in1018.6 mb - 0.00 in0.0 mm 0.00 in0.0 mm
09:30 PM 75.2°F24.0°C 73.0°F22.8°C 93% Calm Calm -- 30.08 in1018.6 mb - 0.00 in0.0 mm 0.00 in0.0 mm
09:45 PM 74.6°F23.7°C 72.7°F22.6°C 94% Calm Calm -- 30.08 in1018.6 mb - 0.00 in0.0 mm 0.00 in0.0 mm
10:00 PM 74.0°F23.3°C 72.4°F22.4°C 95% Calm Calm -- 30.08 in1018.6 mb - 0.00 in0.0 mm 0.00 in0.0 mm
10:15 PM 73.6°F23.1°C 72.1°F22.3°C 95% Calm Calm -- 30.09 in1019.0 mb - 0.00 in0.0 mm 0.00 in0.0 mm
10:30 PM 73.2°F22.9°C 71.6°F22.0°C 95% Calm Calm -- 30.09 in1019.0 mb - 0.00 in0.0 mm 0.00 in0.0 mm
10:45 PM 72.8°F22.7°C 71.6°F22.0°C 96% Calm Calm -- 30.09 in1019.0 mb - 0.00 in0.0 mm 0.00 in0.0 mm
11:00 PM 72.6°F22.6°C 71.4°F21.9°C 96% Calm Calm -- 30.09 in1019.0 mb - 0.00 in0.0 mm 0.00 in0.0 mm
11:15 PM 72.2°F22.3°C 71.0°F21.7°C 96% Calm Calm -- 30.09 in1019.0 mb - 0.00 in0.0 mm 0.00 in0.0 mm
11:30 PM 72.1°F22.3°C 71.2°F21.8°C 97% Calm Calm -- 30.09 in1019.0 mb - 0.00 in0.0 mm 0.00 in0.0 mm
11:45 PM 71.9°F22.2°C 71.0°F21.7°C 97% Calm Calm -- 30.09 in1019.0 mb - 0.00 in0.0 mm 0.00 in0.0 mm